PGRO

Benjamin Taisacan Manglona International Airport

Rota Island, , North Mariana Islands
PGRO 220543Z 2206/2306 15012G22KT 6SM SHRA SCT011 OVC080 TEMPO 2206/2210 2SM +SHRA BKN011 OVC030 FM221400 17010KT P6SM VCSH SCT011 SCT025 BKN080 FM222300 18011KT P6SM VCSH SCT012 SCT030 BKN100
Issued Valid From Valid To
Sep-22 @ 05:43 UTC
(9 hours ago)
Sep-22 @ 06:00 UTC
(9 hours ago)
Sep-23 @ 06:00 UTC
(in 15 hours)
to
to
to
to
PGRO 220543Z 2206/2306 15012G22KT 6SM SHRA SCT011 OVC080 TEMPO 2206/2210 2SM +SHRA BKN011 OVC030 FM221400 17010KT P6SM VCSH SCT011 SCT025 BKN080 FM222300 18011KT P6SM VCSH SCT012 SCT030 BKN100
Issued Sep-22 @ 05:43 UTC
(9 hours ago)
Valid From Sep-22 @ 06:00 UTC
(9 hours ago)
Valid To Sep-23 @ 06:00 UTC
(in 15 hours)
-
-
-
-